Tiempo atmosférico en la estación meteorológica de Ainsa, Huesca (610 m.)



Fecha
DESCASC
Temp. máxima en grados centígrados (hora)
DESCASC
Temp. mínima en grados centígrados (hora)
DESCASC
Temp. media en grados centígrados
DESCASC
Racha de viento máxima en m/sg (hora)
DESCASC
Velocidad máxima media en intervalos de 10 minutos(hora)
DESCASC
Precipitaciones diarias en mm
DESCASC
Precipitaciones de 00:00 a 06:00 en mm
DESCASC
Precipitaciones de 06:00 a 12:00 en mm
DESCASC
Precipitaciones de 12:00 a 18:00 en mm
DESCASC
Precipitaciones de 18:00 a 24:00 en mm
DESCASC
28-02-2021 7.6 (13:00) 4.9 (09:50) 6.3 7.22 (08:30) 4.72 (11:20) 7.8 0 2.4 5.2 0.2
27-02-2021 13 (14:20) 1.8 (08:10) 7.4 7.78 (16:50) 6.67 (15:50) 0 0 0 0 0
26-02-2021 17.2 (15:50) 2.5 (06:30) 9.9 6.11 (17:10) 5 (17:20) 0 0 0 0 0
25-02-2021 16.4 (15:50) 6 (00:00) 11.2 4.44 (16:10) 3.33 (16:20) 0 0 0 0 0
24-02-2021 18.1 (16:00) 4.1 (00:00) 11.1 5 (03:00) 3.89 (18:40) 0 0 0 0 0
23-02-2021 14.4 (17:00) 6.2 (00:00) 10.3 5.83 (00:10) 3.61 (00:10) 1.2 1.2 0 0 0
22-02-2021 11.7 (08:30) 6.2 (00:00) 8.9 14.17 (06:30) 8.33 (09:00) 33 4.8 5.4 18 4.8
21-02-2021 17.2 (14:40) 3.1 (00:00) 10.2 15 (16:30) 10.28 (15:40) 1.2 0 0 0 1.2
20-02-2021 19.5 (14:40) 2.7 (00:00) 11.1 6.67 (17:10) 5 (17:10) 0 0 0 0 0
19-02-2021 17.4 (15:20) 2.5 (00:00) 9.9 4.44 (23:10) 3.61 (16:30) 0 0 0 0 0
18-02-2021 19.1 (16:10) 4.2 (00:00) 11.7 7.78 (16:10) 5 (16:40) 0 0 0 0 0
17-02-2021 15.6 (14:10) 2.9 (00:00) 9.3 4.72 (15:10) 3.61 (15:10) 0 0 0 0 0
16-02-2021 14.5 (15:20) 5.9 (00:00) 10.2 5.56 (08:30) 4.72 (08:30) 0 0 0 0 0
15-02-2021 11.7 (16:10) 5.4 (00:00) 8.5 5.83 (19:40) 4.17 (19:20) 0 0 0 0 0
14-02-2021 11.2 (16:00) 1.2 (00:00) 6.2 6.67 (17:20) 5.28 (17:20) 0 0 0 0 0
13-02-2021 15.5 (13:50) 2.8 (00:00) 9.1 11.11 (01:40) 8.33 (01:30) 0.2 0.2 0 0 0
12-02-2021 10.1 (17:50) 5.1 (00:00) 7.6 5.56 (23:59) 3.61 (04:40) 2 0 1.6 0.4 0
11-02-2021 15.5 (16:10) -0.7 (-00:0) 7.4 6.94 (20:10) 5.56 (21:50) 0 0 0 0 0
10-02-2021 11.2 (14:50) 1.6 (00:00) 6.4 13.33 (15:00) 8.06 (15:00) 2 1 1 0 0
09-02-2021 4.9 (13:50) 0.8 (00:00) 2.9 6.39 (16:50) 5.28 (16:50) 11.8 0 1.2 9.8 0.8
08-02-2021 9.7 (17:30) 2 (00:00) 5.8 5.56 (18:00) 3.89 (00:50) 1.6 0 0.2 1.4 0
07-02-2021 13.2 (14:30) 2.5 (00:00) 7.8 8.06 (16:20) 5.83 (16:20) 0 0 0 0 0
06-02-2021 12.1 (05:30) 6.2 (00:00) 9.2 8.33 (02:20) 5 (09:20) 14.8 0 3 11.2 0.6
05-02-2021 19.4 (13:50) 7.6 (00:00) 13.5 8.89 (16:00) 6.11 (15:10) 0 0 0 0 0
04-02-2021 15.8 (15:40) 6.8 (00:00) 11.3 4.72 (23:10) 3.06 (04:20) 0 0 0 0 0
03-02-2021 16.1 (17:00) 1.8 (00:00) 9 4.44 (04:20) 2.78 (19:10) 0 0 0 0 0
02-02-2021 16.7 (15:00) 3.5 (00:00) 10.1 5.83 (00:30) 4.17 (14:10) 0 0 0 0 0
01-02-2021 15.7 (14:40) 6.3 (00:00) 11 16.11 (13:30) 11.11 (17:20) 0.6 0.6 0 0 0
31-01-2021 15.8 (15:40) 1.3 (00:00) 8.6 15 (23:40) 10 (23:40) 0 0 0 0 0
30-01-2021 12.4 (12:50) 4.3 (00:00) 8.3 13.89 (13:50) 8.89 (14:40) 2.4 0 2.4 0 0

Gráficas

Temp. máximas Temp. mínimas Temp. medias Precipitaciones Rachas de viento máximas Velocidades máximas media en intervalos de 10 minutos

Datos horarios

Fecha y hora oficial Temperatura (ºC) Velocidad del viento (km/h) Dirección del viento Racha (km/h) Dirección de racha Precipitación (mm) Presión (hPa) Tendencia (hPa) Humedad (%)
2021-02-28 23:00:00 5.2 6 Noroeste 11 Noroeste 0 -- -- 100
2021-02-28 22:00:00 5.3 5 Noroeste 9 Noroeste 0 -- -- 99
2021-02-28 21:00:00 5.9 3 Noroeste 9 Oeste 0 -- -- 97
2021-02-28 20:00:00 6.5 8 Noroeste 12 Noroeste 0.2 -- -- 97
2021-02-28 19:00:00 6.6 6 Noroeste 11 Norte 0 -- -- 98
2021-02-28 18:00:00 7 4 Noroeste 12 Noroeste 0.2 -- -- 96
2021-02-28 17:00:00 7.5 7 Oeste 17 Noroeste 0.2 -- -- 96
2021-02-28 16:00:00 7 9 Oeste 15 Oeste 0.2 -- -- 97
2021-02-28 15:00:00 6.7 11 Noroeste 16 Noroeste 2.4 -- -- 97
2021-02-28 14:00:00 6.8 7 Noroeste -- -- 2.2 -- -- 95
2021-02-28 13:00:00 7.6 6 Norte 14 Noroeste 0 -- -- 89
2021-02-28 12:00:00 5.6 14 Norte 23 Norte 0.2 -- -- 92
2021-02-28 11:00:00 5.1 15 Norte 24 Norte 0 -- -- 92
2021-02-28 10:00:00 5 14 Noroeste 22 Norte 0.8 -- -- 94
2021-02-28 09:00:00 5.3 12 Noroeste 26 Norte 1 -- -- 94
2021-02-28 08:00:00 5.7 11 Norte 22 Norte 0.4 -- -- 93
2021-02-28 07:00:00 6.5 17 Norte 21 Norte 0 -- -- 88
2021-02-28 06:00:00 6.2 6 Noroeste 20 Norte 0 -- -- 88
2021-02-28 05:00:00 7 15 Norte 19 Norte 0 -- -- 78
2021-02-28 04:00:00 7.1 8 Norte 12 Norte 0 -- -- 86
2021-02-28 03:00:00 7.3 8 Oeste 15 Noroeste 0 -- -- 94
2021-02-28 02:00:00 7.2 9 Noroeste 15 Noroeste 0 -- -- 93
2021-02-28 01:00:00 7.2 3 Oeste 4 Oeste 0 -- -- 94
2021-02-28 00:00:00 7.2 0 Calma 8 Noroeste 0 -- -- 94
2021-02-27 23:00:00 6.8 8 Noroeste 10 Oeste 0 -- -- 95
2021-02-27 22:00:00 6.6 4 Noroeste 10 Oeste 0 -- -- 96
2021-02-27 21:00:00 6.3 4 Norte 8 Norte 0 -- -- 95
2021-02-27 20:00:00 7.1 2 Sudeste 13 Sudeste 0 -- -- 92
2021-02-27 19:00:00 7.8 7 Sudeste 21 Sudeste 0 -- -- 90
2021-02-27 18:00:00 9.3 19 Sudeste 26 Sudeste 0 -- -- 87
2021-02-27 17:00:00 10.5 22 Sudeste 28 Sudeste 0 -- -- 82
2021-02-27 16:00:00 11.9 22 Sudeste 27 Sudeste 0 -- -- 77
2021-02-27 15:00:00 12.5 20 Sudeste 25 Sudeste 0 -- -- 74
2021-02-27 14:00:00 12.4 14 Sudeste 20 Sudeste 0 -- -- 75
2021-02-27 13:00:00 11.1 14 Sudeste 19 Sudeste 0 -- -- 74
2021-02-27 12:00:00 8.4 14 Sudeste 17 Sudeste 0 -- -- 83
2021-02-27 11:00:00 5 7 Sudeste 12 Este 0 -- -- 100
2021-02-27 10:00:00 3.1 4 Sudeste 8 Sudeste 0 -- -- 100
2021-02-27 09:00:00 2.1 2 Este 6 Sudoeste 0 -- -- 100
2021-02-27 08:00:00 1.9 0 Calma 5 Norte 0 -- -- 100
2021-02-27 07:00:00 2.4 0 Calma 6 Noroeste 0 -- -- 100
2021-02-27 06:00:00 2.8 3 Norte 6 Oeste 0 -- -- 100
2021-02-27 05:00:00 3.9 5 Oeste 9 Noroeste 0 -- -- 100
2021-02-27 04:00:00 4 3 Noroeste 7 Oeste 0 -- -- 100
2021-02-27 03:00:00 4.3 4 Noroeste 6 Noroeste 0 -- -- 100
2021-02-27 02:00:00 4.5 5 Norte 9 Norte 0 -- -- 98
2021-02-27 01:00:00 5.2 7 Noroeste 12 Norte 0 -- -- 96
2021-02-27 00:00:00 5.9 10 Norte 13 Norte 0 -- -- 91
2021-02-26 23:00:00 6.7 8 Norte 12 Noroeste 0 -- -- 91
2021-02-26 22:00:00 8.2 6 Norte 14 Noroeste 0 -- -- 88
2021-02-26 21:00:00 9.6 6 Norte 12 Norte 0 -- -- 87
2021-02-26 20:00:00 11 3 Nordeste 12 Sudeste 0 -- -- 86
2021-02-26 19:00:00 12.3 10 Sudeste 16 Sudeste 0 -- -- 82
2021-02-26 18:00:00 13.9 14 Sudeste 22 Sudeste 0 -- -- 76
2021-02-26 17:00:00 16 17 Sudeste 20 Sudeste 0 -- -- 66
2021-02-26 16:00:00 17 13 Sudeste 16 Este 0 -- -- 50
2021-02-26 15:00:00 16.6 11 Sudeste 14 Sudeste 0 -- -- 43
2021-02-26 14:00:00 15.8 8 Sudeste 10 Sudeste 0 -- -- 48
2021-02-26 13:00:00 14.1 6 Sudeste 9 Sudeste 0 -- -- 57
2021-02-26 12:00:00 11.8 5 Sur 10 Sur 0 -- -- 57
2021-02-26 11:00:00 8.1 3 Sur 8 Sudeste 0 -- -- 76
2021-02-26 10:00:00 5.4 2 Sur 5 Norte 0 -- -- 89
2021-02-26 09:00:00 3.1 3 Norte 6 Noroeste 0 -- -- 92
2021-02-26 08:00:00 3.2 5 Oeste 12 Noroeste 0 -- -- 89
2021-02-26 07:00:00 3.3 4 Oeste 10 Norte 0 -- -- 88
2021-02-26 06:00:00 3.3 5 Noroeste 12 Noroeste 0 -- -- 91
2021-02-26 05:00:00 3.9 4 Noroeste 12 Noroeste 0 -- -- 89
2021-02-26 04:00:00 3.9 8 Noroeste 12 Noroeste 0 -- -- 90
2021-02-26 03:00:00 3.9 6 Noroeste 12 Noroeste 0 -- -- 93
2021-02-26 02:00:00 5 5 Noroeste 13 Noroeste 0 -- -- 84
2021-02-26 01:00:00 5 7 Noroeste 12 Noroeste 0 -- -- 90
2021-02-26 00:00:00 6.1 6 Noroeste 9 Oeste 0 -- -- 84
2021-02-25 23:00:00 6.6 5 Noroeste 12 Norte 0 -- -- 84
2021-02-25 22:00:00 7.8 7 Noroeste 11 Noroeste 0 -- -- 80
2021-02-25 21:00:00 8.4 8 Noroeste 10 Noroeste 0 -- -- 80
2021-02-25 20:00:00 10.1 6 Noroeste 13 Oeste 0 -- -- 77
2021-02-25 19:00:00 12 7 Noroeste 14 Norte 0 -- -- 72
2021-02-25 18:00:00 14.8 7 Sudeste 10 Sudeste 0 -- -- 60
2021-02-25 17:00:00 15.6 8 Sudeste 16 Sudeste 0 -- -- 59
2021-02-25 16:00:00 15.9 10 Sudeste 14 Sudeste 0 -- -- 55
2021-02-25 15:00:00 15.1 5 Oeste 10 Sudoeste 0 -- -- 56
2021-02-25 14:00:00 14.4 6 Sur 11 Sudeste 0 -- -- 55
2021-02-25 13:00:00 12.9 4 Sudeste 11 Sur 0 -- -- 66
2021-02-25 12:00:00 12.2 7 Sudeste 13 Sudeste 0 -- -- 69
2021-02-25 11:00:00 10.9 8 Sudeste 13 Sudeste 0 -- -- 76
2021-02-25 10:00:00 8.2 4 Nordeste 15 Norte 0 -- -- 83
2021-02-25 09:00:00 6.3 8 Norte 12 Norte 0 -- -- 86
2021-02-25 08:00:00 6.1 8 Norte 10 Norte 0 -- -- 88
2021-02-25 07:00:00 6.6 4 Norte 7 Norte 0 -- -- 93
2021-02-25 06:00:00 7 3 Nordeste 5 Oeste 0 -- -- 93
2021-02-25 05:00:00 7 3 Noroeste 8 Norte 0 -- -- 92
2021-02-25 04:00:00 7.3 3 Noroeste 6 Norte 0 -- -- 93
2021-02-25 03:00:00 7.3 5 Norte 7 Norte 0 -- -- 95
2021-02-25 02:00:00 7.3 6 Norte 10 Norte 0 -- -- 93
2021-02-25 01:00:00 8.1 5 Noroeste 7 Oeste 0 -- -- 92
2021-02-25 00:00:00 8.4 4 Norte 7 Oeste 0 -- -- 89
2021-02-24 23:00:00 8.4 8 Oeste 9 Oeste 0 -- -- 90
2021-02-24 22:00:00 9 7 Noroeste 13 Oeste 0 -- -- 89
2021-02-24 21:00:00 10.2 6 Noroeste 10 Noroeste 0 -- -- 86
2021-02-24 20:00:00 11.9 5 Sudeste 12 Sudeste 0 -- -- 86
2021-02-24 19:00:00 13.2 7 Este 18 Sudeste 0 -- -- 80
2021-02-24 18:00:00 15.6 10 Sudeste 17 Sudeste 0 -- -- 68
2021-02-24 17:00:00 17 13 Sudeste 18 Sudeste 0 -- -- 58
2021-02-24 16:00:00 18.1 8 Sudeste 14 Sudeste 0 -- -- 52
2021-02-24 15:00:00 17.5 13 Sudeste 15 Sudeste 0 -- -- 57
2021-02-24 14:00:00 17.1 11 Sudeste 14 Sudeste 0 -- -- 59
2021-02-24 13:00:00 15.3 6 Sudeste 9 Sudeste 0 -- -- 68
2021-02-24 12:00:00 13.1 4 Este 9 Este 0 -- -- 71
2021-02-24 11:00:00 10.5 4 Sudeste 7 Sudeste 0 -- -- 82
2021-02-24 10:00:00 7.4 2 Sudoeste 8 Noroeste 0 -- -- 96
2021-02-24 09:00:00 5.1 4 Norte 9 Oeste 0 -- -- 99
2021-02-24 08:00:00 4.4 2 Norte 9 Noroeste 0 -- -- 98
2021-02-24 07:00:00 4.8 4 Noroeste 10 Noroeste 0 -- -- 99
2021-02-24 06:00:00 4.6 6 Norte 11 Noroeste 0 -- -- 98
2021-02-24 05:00:00 5 8 Norte 12 Norte 0 -- -- 97
2021-02-24 04:00:00 5.5 8 Noroeste 17 Noroeste 0 -- -- 96
2021-02-24 03:00:00 5.2 14 Norte 18 Norte 0 -- -- 97
2021-02-24 02:00:00 5.6 7 Noroeste 12 Noroeste 0 -- -- 98
2021-02-24 01:00:00 6.5 4 Oeste 17 Norte 0 -- -- 95
2021-02-24 00:00:00 6.8 8 Noroeste 14 Norte 0 -- -- 95
2021-02-23 23:00:00 7.4 9 Noroeste 14 Noroeste 0 -- -- 94
2021-02-23 22:00:00 7.9 11 Norte 17 Noroeste 0 -- -- 94
2021-02-23 21:00:00 8.6 8 Noroeste 17 Oeste 0 -- -- 93
2021-02-23 20:00:00 9.6 8 Noroeste 14 Noroeste 0 -- -- 91
2021-02-23 19:00:00 11.4 9 Noroeste 12 Norte 0 -- -- 86
2021-02-23 18:00:00 13.3 7 Norte 10 Norte 0 -- -- 77
2021-02-23 17:00:00 14.4 4 Oeste 9 Noroeste 0 -- -- 74
2021-02-23 16:00:00 13.4 6 Norte 14 Norte 0 -- -- 77
2021-02-23 15:00:00 13.1 7 Norte 12 Norte 0 -- -- 81
2021-02-23 14:00:00 13.1 5 Este 12 Norte 0 -- -- 80
2021-02-23 13:00:00 11 5 Nordeste 9 Nordeste 0 -- -- 88
2021-02-23 12:00:00 9.6 3 Sudeste 5 Nordeste 0 -- -- 94
2021-02-23 11:00:00 8.5 0 Calma 7 Oeste 0 -- -- 99
2021-02-23 10:00:00 7.3 2 Noroeste 5 Norte 0 -- -- 100
2021-02-23 09:00:00 6.8 0 Calma 6 Norte 0 -- -- 100
2021-02-23 08:00:00 6.5 5 Oeste 12 Norte 0 -- -- 99
2021-02-23 07:00:00 6.5 4 Noroeste 10 Oeste 0 -- -- 99
2021-02-23 06:00:00 6.4 6 Noroeste 10 Oeste 0 -- -- 99
2021-02-23 05:00:00 6.4 6 Noroeste 12 Noroeste 0 -- -- 99
2021-02-23 04:00:00 6.4 2 Oeste 7 Oeste 0 -- -- 98
2021-02-23 03:00:00 6.4 4 Noroeste 13 Oeste 0.6 -- -- 98
2021-02-23 02:00:00 6.3 7 Oeste 13 Oeste 0.4 -- -- 98
2021-02-23 01:00:00 6.3 6 Noroeste 21 Noroeste 0.2 -- -- 98
2021-02-23 00:00:00 6.5 9 Noroeste 15 Norte 1 -- -- 99
2021-02-22 23:00:00 6.3 4 Noroeste 15 Noroeste 0.8 -- -- 98
2021-02-22 22:00:00 6.5 5 Oeste 8 Oeste 1.2 -- -- 98
2021-02-22 21:00:00 6.8 5 Norte 9 Oeste 0.2 -- -- 97
2021-02-22 20:00:00 7.1 7 Noroeste 10 Noroeste 0.6 -- -- 99
2021-02-22 19:00:00 7.3 6 Noroeste 10 Noroeste 1 -- -- 98
2021-02-22 18:00:00 7.6 4 Oeste 12 Norte 1.4 -- -- 99
2021-02-22 17:00:00 7.6 7 Norte 13 Norte 2.6 -- -- 98
2021-02-22 16:00:00 7.7 6 Norte 20 Norte 4.4 -- -- 98
2021-02-22 15:00:00 8 10 Norte 15 Noroeste 3.4 -- -- 98
2021-02-22 14:00:00 8 8 Norte 23 Norte 5.6 -- -- 97
2021-02-22 13:00:00 8.1 18 Norte 26 Norte 0.6 -- -- 94
2021-02-22 12:00:00 8.2 15 Norte 23 Norte 1.2 -- -- 95
2021-02-22 11:00:00 8.6 9 Norte 14 Norte 1.8 -- -- 95
2021-02-22 10:00:00 9.3 3 Sur 48 Este 2 -- -- 91
2021-02-22 09:00:00 11.6 30 Sudeste 44 Sudeste 0 -- -- 70
2021-02-22 08:00:00 11.3 15 Sudeste 46 Sudeste 0 -- -- 78
2021-02-22 07:00:00 11.1 22 Sudeste 51 Este 0.4 -- -- 83
2021-02-22 06:00:00 9.6 12 Sudoeste 24 Sudeste 0.2 -- -- 91
2021-02-22 05:00:00 8.6 12 Oeste 17 Oeste 0 -- -- 97
2021-02-22 04:00:00 8.7 13 Noroeste 21 Noroeste 0 -- -- 96
2021-02-22 03:00:00 8.6 9 Oeste 19 Noroeste 0.6 -- -- 97
2021-02-22 02:00:00 8.8 12 Noroeste 24 Norte 1.6 -- -- 94
2021-02-22 01:00:00 8.9 5 Oeste 24 Noroeste 2.4 -- -- 94
2021-02-22 00:00:00 9.6 16 Norte 27 Norte 1 -- -- 89
2021-02-21 23:00:00 12.1 7 Noroeste 32 Este 0.2 -- -- 66
2021-02-21 22:00:00 12.7 11 Sudoeste 17 Sudoeste 0 -- -- 55
2021-02-21 21:00:00 13.7 5 Sur 15 Sudeste 0 -- -- 50
2021-02-21 20:00:00 13.9 6 Sudeste 33 Sudeste 0 -- -- 50
2021-02-21 19:00:00 14.3 17 Sur 27 Sudeste 0 -- -- 47
2021-02-21 18:00:00 14.7 15 Sur 53 Sudeste 0 -- -- 46
2021-02-21 17:00:00 15.2 21 Sudeste 54 Sudeste 0 -- -- 45
2021-02-21 16:00:00 16 26 Sudeste 54 Sudeste 0 -- -- 41
2021-02-21 15:00:00 17.1 18 Este 42 Sudeste 0 -- -- 39
2021-02-21 14:00:00 17 23 Sudeste 46 Sudeste 0 -- -- 36
2021-02-21 13:00:00 16.8 24 Sudeste 38 Sudeste 0 -- -- 33
2021-02-21 12:00:00 14.2 5 Oeste 8 Oeste 0 -- -- 55
2021-02-21 11:00:00 10.1 4 Noroeste 13 Noroeste 0 -- -- 62
2021-02-21 10:00:00 5.9 4 Norte 21 Norte 0 -- -- 77
2021-02-21 09:00:00 4.1 6 Oeste 11 Noroeste 0 -- -- 81
2021-02-21 08:00:00 3.2 7 Noroeste 14 Noroeste 0 -- -- 84
2021-02-21 07:00:00 3.1 7 Noroeste 18 Norte 0 -- -- 85
2021-02-21 06:00:00 3.3 11 Norte 15 Norte 0 -- -- 85
2021-02-21 05:00:00 4.2 6 Noroeste 13 Norte 0 -- -- 80
2021-02-21 04:00:00 4.7 8 Noroeste 15 Noroeste 0 -- -- 79
2021-02-21 03:00:00 4.6 10 Noroeste 17 Noroeste 0 -- -- 81
2021-02-21 02:00:00 5.1 8 Noroeste 12 Noroeste 0 -- -- 79
2021-02-21 01:00:00 6.1 8 Noroeste 17 Noroeste 0 -- -- 74
2021-02-21 00:00:00 6.6 10 Noroeste 15 Noroeste 0 -- -- 74
2021-02-20 23:00:00 7.9 7 Noroeste 14 Noroeste 0 -- -- 68
2021-02-20 22:00:00 8.5 10 Noroeste 15 Norte 0 -- -- 65
2021-02-20 21:00:00 10 7 Noroeste 12 Oeste 0 -- -- 59
2021-02-20 20:00:00 11.1 11 Noroeste 18 Oeste 0 -- -- 56
2021-02-20 19:00:00 15.3 4 Sur 12 Sudeste 0 -- -- 40
2021-02-20 18:00:00 17.2 10 Sudeste 24 Sur 0 -- -- 37
2021-02-20 17:00:00 18.3 16 Sur 24 Sur 0 -- -- 33
2021-02-20 16:00:00 19.1 15 Sudeste 22 Sudeste 0 -- -- 32
2021-02-20 15:00:00 19.1 13 Sudeste 21 Sur 0 -- -- 34
2021-02-20 14:00:00 18 4 Sudoeste 12 Sudoeste 0 -- -- 46
2021-02-20 13:00:00 15.7 4 Sudoeste 9 Sudoeste 0 -- -- 54
2021-02-20 12:00:00 12.6 3 Sudoeste 8 Sur 0 -- -- 59
2021-02-20 11:00:00 10.1 3 Sur 8 Sudeste 0 -- -- 67
2021-02-20 10:00:00 7.3 2 Oeste 6 Sudoeste 0 -- -- 81
2021-02-20 09:00:00 4.1 4 Oeste 12 Noroeste 0 -- -- 88
2021-02-20 08:00:00 2.7 4 Oeste 13 Noroeste 0 -- -- 89
2021-02-20 07:00:00 3.4 5 Noroeste 10 Noroeste 0 -- -- 85
2021-02-20 06:00:00 4 5 Noroeste 14 Oeste 0 -- -- 85
2021-02-20 05:00:00 3.8 9 Noroeste 14 Noroeste 0 -- -- 87
2021-02-20 04:00:00 4.5 4 Noroeste 8 Noroeste 0 -- -- 84
2021-02-20 03:00:00 4.8 8 Noroeste 12 Noroeste 0 -- -- 84
2021-02-20 02:00:00 5.1 6 Noroeste 10 Noroeste 0 -- -- 83
2021-02-20 01:00:00 5.6 5 Noroeste 17 Norte 0 -- -- 81
2021-02-20 00:00:00 6.6 8 Noroeste 16 Noroeste 0 -- -- 77
2021-02-19 23:00:00 6.8 8 Noroeste 16 Noroeste 0 -- -- 77
2021-02-19 22:00:00 7 9 Noroeste 14 Noroeste 0 -- -- 77
2021-02-19 21:00:00 8.4 8 Noroeste 11 Noroeste 0 -- -- 72
2021-02-19 20:00:00 10.3 4 Noroeste 12 Noroeste 0 -- -- 66
2021-02-19 19:00:00 12 10 Noroeste 13 Noroeste 0 -- -- 61
2021-02-19 18:00:00 16.2 8 Sudeste 13 Sudeste 0 -- -- 42
2021-02-19 17:00:00 16.9 9 Sudeste 15 Sudeste 0 -- -- 41
2021-02-19 16:00:00 17.2 11 Sudeste 15 Sudeste 0 -- -- 42
2021-02-19 15:00:00 17.3 9 Sudeste 14 Sudeste 0 -- -- 43
2021-02-19 14:00:00 16.4 11 Sudeste 15 Sudeste 0 -- -- 47
2021-02-19 13:00:00 14.8 6 Sudeste 10 Sudeste 0 -- -- 53
2021-02-19 12:00:00 12.4 5 Este 10 Sur 0 -- -- 59
2021-02-19 11:00:00 9.4 3 Sur 8 Sur 0 -- -- 74
2021-02-19 10:00:00 6.1 2 Noroeste 7 Oeste 0 -- -- 84
2021-02-19 09:00:00 3.1 2 Oeste 9 Oeste 0 -- -- 94
2021-02-19 08:00:00 2.9 4 Norte 13 Noroeste 0 -- -- 92
2021-02-19 07:00:00 3.1 5 Noroeste 13 Noroeste 0 -- -- 91
2021-02-19 06:00:00 3.1 5 Norte 8 Norte 0 -- -- 92
2021-02-19 05:00:00 3.7 6 Oeste 15 Norte 0 -- -- 90
2021-02-19 04:00:00 4.1 9 Noroeste 13 Noroeste 0 -- -- 87
2021-02-19 03:00:00 4.3 8 Norte 11 Noroeste 0 -- -- 88
2021-02-19 02:00:00 5.6 8 Oeste 12 Oeste 0 -- -- 79
2021-02-19 01:00:00 6.1 10 Noroeste 13 Noroeste 0 -- -- 81
2021-02-19 00:00:00 6.4 8 Noroeste 9 Noroeste 0 -- -- 79
2021-02-18 23:00:00 7.8 4 Noroeste 8 Noroeste 0 -- -- 72
2021-02-18 22:00:00 9.4 3 Norte 9 Oeste 0 -- -- 65
2021-02-18 21:00:00 10 8 Oeste 13 Oeste 0 -- -- 62
2021-02-18 20:00:00 11 6 Noroeste 13 Noroeste 0 -- -- 58
2021-02-18 19:00:00 13.9 2 Sur 18 Sudoeste 0 -- -- 49
2021-02-18 18:00:00 16.8 12 Sudoeste 19 Oeste 0 -- -- 36
2021-02-18 17:00:00 16.9 12 Sudeste 28 Sudeste 0 -- -- 42
2021-02-18 16:00:00 18.9 18 Sudeste 25 Sudeste 0 -- -- 36
2021-02-18 15:00:00 18.5 11 Este 18 Este 0 -- -- 42
2021-02-18 14:00:00 16.8 13 Sudeste 15 Sudeste 0 -- -- 51
2021-02-18 13:00:00 14.5 4 Este 8 Este 0 -- -- 61
2021-02-18 12:00:00 13.1 3 Sudeste 9 Sur 0 -- -- 67
2021-02-18 11:00:00 10.7 3 Sudoeste 8 Sudoeste 0 -- -- 78
2021-02-18 10:00:00 7 3 Oeste 9 Norte 0 -- -- 91
2021-02-18 09:00:00 4.8 4 Oeste 8 Noroeste 0 -- -- 97
2021-02-18 08:00:00 4.2 8 Noroeste 12 Oeste 0 -- -- 98
2021-02-18 07:00:00 5 4 Noroeste 15 Noroeste 0 -- -- 96
2021-02-18 06:00:00 5.7 5 Noroeste 10 Noroeste 0 -- -- 95
2021-02-18 05:00:00 5.7 5 Noroeste 17 Norte 0 -- -- 97
2021-02-18 04:00:00 6 6 Noroeste 14 Norte 0 -- -- 97
2021-02-18 03:00:00 6.8 5 Noroeste 12 Noroeste 0 -- -- 95
2021-02-18 02:00:00 6.5 8 Norte 12 Norte 0 -- -- 96
2021-02-18 01:00:00 7.5 8 Oeste 10 Noroeste 0 -- -- 94
2021-02-18 00:00:00 8.1 6 Noroeste 9 Norte 0 -- -- 93
2021-02-17 23:00:00 9.1 2 Noroeste 9 Oeste 0 -- -- 91
2021-02-17 22:00:00 10.1 6 Oeste 12 Norte 0 -- -- 88
2021-02-17 21:00:00 10.4 9 Norte 13 Norte 0 -- -- 85
2021-02-17 20:00:00 11.2 4 Noroeste 10 Oeste 0 -- -- 83
2021-02-17 19:00:00 12.1 3 Nordeste 12 Norte 0 -- -- 79
2021-02-17 18:00:00 13.1 9 Sudeste 17 Sudeste 0 -- -- 74
2021-02-17 17:00:00 14.9 10 Sudeste 17 Sudeste 0 -- -- 70
2021-02-17 16:00:00 14.2 9 Sudeste 17 Sudeste 0 -- -- 70
2021-02-17 15:00:00 14.2 11 Sudeste 14 Sudeste 0 -- -- 66
2021-02-17 14:00:00 15.4 10 Sudeste 15 Sudeste 0 -- -- 59
2021-02-17 13:00:00 14.5 5 Sudeste 13 Sur 0 -- -- 60
2021-02-17 12:00:00 12 3 Sudeste 8 Este 0 -- -- 70
2021-02-17 11:00:00 8.6 2 Oeste 9 Nordeste 0 -- -- 83
2021-02-17 10:00:00 5.2 4 Noroeste 8 Noroeste 0 -- -- 94
2021-02-17 09:00:00 4.1 3 Sudeste 8 Norte 0 -- -- 98
2021-02-17 08:00:00 2.9 9 Norte 11 Norte 0 -- -- 98
2021-02-17 07:00:00 3.5 5 Noroeste 12 Noroeste 0 -- -- 98
2021-02-17 06:00:00 3.5 6 Norte 10 Noroeste 0 -- -- 98
2021-02-17 05:00:00 4.1 6 Noroeste 17 Norte 0 -- -- 96
2021-02-17 04:00:00 4 7 Noroeste 13 Norte 0 -- -- 97
2021-02-17 03:00:00 4.7 6 Noroeste 15 Norte 0 -- -- 96
2021-02-17 02:00:00 5.2 8 Oeste 14 Noroeste 0 -- -- 97
2021-02-17 01:00:00 5.6 8 Norte 10 Norte 0 -- -- 95
2021-02-17 00:00:00 6.5 9 Noroeste 13 Noroeste 0 -- -- 94
2021-02-16 23:00:00 7.3 7 Norte 9 Norte 0 -- -- 92
2021-02-16 22:00:00 8.2 5 Noroeste 9 Oeste 0 -- -- 89
2021-02-16 21:00:00 8.9 8 Noroeste 11 Oeste 0 -- -- 86
2021-02-16 20:00:00 10 5 Noroeste 10 Noroeste 0 -- -- 82
2021-02-16 19:00:00 10.7 6 Norte 10 Norte 0 -- -- 80
2021-02-16 18:00:00 12 2 Este 10 Sudeste 0 -- -- 69
2021-02-16 17:00:00 12.6 6 Sudeste 13 Sudeste 0 -- -- 68
2021-02-16 16:00:00 13.5 10 Sudeste 15 Sudeste 0 -- -- 64
2021-02-16 15:00:00 13.9 5 Sudeste 13 Sudeste 0 -- -- 61
2021-02-16 14:00:00 13 9 Sudeste 12 Sudeste 0 -- -- 64
2021-02-16 13:00:00 11.7 4 Sur 8 Sudeste 0 -- -- 65
2021-02-16 12:00:00 10 3 Sudeste 9 Este 0 -- -- 69
2021-02-16 11:00:00 8.2 5 Norte 10 Norte 0 -- -- 75
2021-02-16 10:00:00 6.6 9 Norte 17 Norte 0 -- -- 81
2021-02-16 09:00:00 5.9 13 Norte 20 Norte 0 -- -- 83
2021-02-16 08:00:00 6.1 13 Norte 18 Norte 0 -- -- 83
2021-02-16 07:00:00 6.6 6 Norte 12 Norte 0 -- -- 84
2021-02-16 06:00:00 6.7 7 Norte 11 Norte 0 -- -- 88
2021-02-16 05:00:00 6.9 2 Noroeste 4 Noroeste 0 -- -- 93
2021-02-16 04:00:00 7 3 Oeste 5 Noroeste 0 -- -- 93
2021-02-16 03:00:00 7.1 0 Calma 4 Norte 0 -- -- 93
2021-02-16 02:00:00 7.3 0 Calma 3 Nordeste 0 -- -- 90
2021-02-16 01:00:00 7.4 0 Calma 4 Sudeste 0 -- -- 89
2021-02-16 00:00:00 7.5 2 Sudeste 4 Este 0 -- -- 89
2021-02-15 23:00:00 7.6 0 Calma 6 Sur 0 -- -- 87
2021-02-15 22:00:00 7.7 3 Este 11 Este 0 -- -- 87
2021-02-15 21:00:00 7.9 6 Este 16 Sudeste 0 -- -- 87
2021-02-15 20:00:00 8.1 13 Sudeste 21 Este 0 -- -- 86
2021-02-15 19:00:00 8.9 8 Sudeste 17 Sudeste 0 -- -- 83
2021-02-15 18:00:00 9.9 11 Sudeste 17 Sudeste 0 -- -- 77
2021-02-15 17:00:00 10.5 9 Sudeste 13 Sudeste 0 -- -- 72
2021-02-15 16:00:00 11.5 8 Sudeste 12 Sur 0 -- -- 69
2021-02-15 15:00:00 11 5 Sudeste 14 Sudeste 0 -- -- 69
2021-02-15 14:00:00 10.3 4 Este 10 Sudeste 0 -- -- 73
2021-02-15 13:00:00 9.2 5 Sudeste 9 Sudeste 0 -- -- 74
2021-02-15 12:00:00 8.1 3 Sudeste 9 Este 0 -- -- 82
2021-02-15 11:00:00 6.8 3 Nordeste 5 Nordeste 0 -- -- 90
2021-02-15 10:00:00 6 3 Sudeste 5 Este 0 -- -- 95
2021-02-15 09:00:00 5.5 0 Calma 3 Sudoeste 0 -- -- 96
2021-02-15 08:00:00 5.4 2 Sudoeste 3 Este 0 -- -- 96
2021-02-15 07:00:00 5.5 0 Calma 3 Este 0 -- -- 95
2021-02-15 06:00:00 5.5 0 Calma 4 Nordeste 0 -- -- 95
2021-02-15 05:00:00 5.5 0 Calma 5 Nordeste 0 -- -- 94
2021-02-15 04:00:00 5.6 2 Nordeste 5 Este 0 -- -- 93
2021-02-15 03:00:00 5.7 4 Sudeste 9 Este 0 -- -- 93
2021-02-15 02:00:00 5.8 6 Sudeste 16 Sudeste 0 -- -- 93
2021-02-15 01:00:00 6 12 Sudeste 20 Sudeste 0 -- -- 91
2021-02-15 00:00:00 6.2 13 Sur 18 Sudeste 0 -- -- 90
2021-02-14 23:00:00 6.5 9 Sur 19 Sur 0 -- -- 89
2021-02-14 22:00:00 6.9 11 Sudeste 18 Sudeste 0 -- -- 89
2021-02-14 21:00:00 7.3 13 Sudeste 19 Sur 0 -- -- 89
2021-02-14 20:00:00 7.7 9 Sudeste 14 Sudeste 0 -- -- 91
2021-02-14 19:00:00 8.1 12 Sudeste 20 Sudeste 0 -- -- 90
2021-02-14 18:00:00 8.9 15 Sudeste 24 Sudeste 0 -- -- 86
2021-02-14 17:00:00 10.8 18 Sudeste 22 Sudeste 0 -- -- 76
2021-02-14 16:00:00 11.2 14 Sudeste 20 Sudeste 0 -- -- 72
2021-02-14 15:00:00 10.2 6 Sudeste 10 Sudeste 0 -- -- 71
2021-02-14 14:00:00 8.4 3 Sudeste 5 Sudeste 0 -- -- 74
2021-02-14 13:00:00 6.9 5 Sudeste 8 Sudeste 0 -- -- 79
2021-02-14 12:00:00 7.4 4 Sudeste 8 Sur 0 -- -- 73
2021-02-14 11:00:00 5.7 3 Sur 10 Noroeste 0 -- -- 81
2021-02-14 10:00:00 4.1 10 Oeste 16 Oeste 0 -- -- 87
2021-02-14 09:00:00 3.2 4 Noroeste 8 Oeste 0 -- -- 88
2021-02-14 08:00:00 2.6 6 Oeste 9 Oeste 0 -- -- 89
2021-02-14 07:00:00 1.8 7 Noroeste 11 Noroeste 0 -- -- 92
2021-02-14 06:00:00 1.4 6 Noroeste 10 Noroeste 0 -- -- 91
2021-02-14 05:00:00 1.6 4 Oeste 14 Norte 0 -- -- 90
2021-02-14 04:00:00 1.6 6 Noroeste 10 Norte 0 -- -- 92
2021-02-14 03:00:00 2.9 6 Noroeste 8 Noroeste 0 -- -- 86
2021-02-14 02:00:00 3 8 Noroeste 15 Norte 0 -- -- 88
2021-02-14 01:00:00 4.3 6 Noroeste 12 Noroeste 0 -- -- 83
2021-02-14 00:00:00 4.8 8 Oeste 14 Noroeste 0 -- -- 85
2021-02-13 23:00:00 5.8 6 Noroeste 10 Norte 0 -- -- 85
2021-02-13 22:00:00 6.4 8 Norte 10 Norte 0 -- -- 91
2021-02-13 21:00:00 8.1 9 Norte 13 Norte 0 -- -- 88
2021-02-13 20:00:00 9.3 5 Noroeste 8 Norte 0 -- -- 83
2021-02-13 19:00:00 10.9 6 Noroeste 13 Norte 0 -- -- 77
2021-02-13 18:00:00 12.2 4 Nordeste 12 Sudeste 0 -- -- 70
2021-02-13 17:00:00 12.9 7 Sudeste 20 Sudeste 0 -- -- 67
2021-02-13 16:00:00 13.2 18 Sudeste 24 Sudeste 0 -- -- 64
2021-02-13 15:00:00 15 17 Sudeste 22 Sudeste 0 -- -- 55
2021-02-13 14:00:00 15.1 8 Sudeste 13 Sudeste 0 -- -- 54
2021-02-13 13:00:00 13.7 4 Este 11 Este 0 -- -- 51
2021-02-13 08:00:00 -- -- -- -- -- -- -- -- --
2021-02-13 07:00:00 3.3 4 Noroeste 14 Norte 0 -- -- 87
2021-02-13 06:00:00 4.6 6 Noroeste 22 Norte 0 -- -- 81
2021-02-13 05:00:00 5.1 5 Este 17 Oeste 0 -- -- 79
2021-02-13 04:00:00 6.4 4 Norte 18 Norte 0 -- -- 73
2021-02-13 03:00:00 7.9 8 Oeste 20 Oeste 0 -- -- 67
2021-02-13 02:00:00 7.7 13 Noroeste 40 Oeste 0 -- -- 69
2021-02-13 01:00:00 8.4 19 Oeste 27 Oeste 0.2 -- -- 65
2021-02-13 00:00:00 8.1 10 Oeste 20 Oeste 0 -- -- 73
2021-02-12 23:00:00 7.3 4 Este 17 Nordeste 0 -- -- 86
2021-02-12 22:00:00 6.8 6 Norte 15 Nordeste 0 -- -- 98
2021-02-12 21:00:00 7.3 5 Noroeste 12 Norte 0 -- -- 98
2021-02-12 20:00:00 7.8 6 Este 13 Este 0 -- -- 98
2021-02-12 19:00:00 8.5 6 Nordeste 12 Este 0 -- -- 96
2021-02-12 18:00:00 10 5 Sudeste 9 Sudeste 0 -- -- 92
2021-02-12 17:00:00 9.3 6 Sudeste 9 Sudeste 0 -- -- 94
2021-02-12 16:00:00 9.6 4 Sur 5 Nordeste 0 -- -- 96
2021-02-12 15:00:00 8.9 3 Oeste 8 Sudoeste 0.2 -- -- 98
2021-02-12 14:00:00 9 3 Sudeste 5 Sudeste 0 -- -- 97
2021-02-12 13:00:00 8.3 0 Calma 5 Sudoeste 0.2 -- -- 98
2021-02-12 12:00:00 7.9 2 Sudeste 10 Norte 0.2 -- -- 98
2021-02-12 11:00:00 6.9 4 Noroeste 9 Oeste 1.2 -- -- 98
2021-02-12 10:00:00 6.3 4 Noroeste 6 Noroeste 0.2 -- -- 97
2021-02-12 09:00:00 5.8 3 Noroeste 6 Sudoeste 0 -- -- 95
2021-02-12 08:00:00 5.3 2 Norte 9 Oeste 0 -- -- 95
2021-02-12 07:00:00 5.4 5 Nordeste 8 Norte 0 -- -- 93
2021-02-12 06:00:00 5.4 8 Norte 10 Sudeste 0 -- -- 94
2021-02-12 05:00:00 5.9 6 Oeste 17 Norte 0 -- -- 92
2021-02-12 04:00:00 5.7 9 Noroeste 15 Norte 0 -- -- 92
2021-02-12 03:00:00 5.9 9 Norte 13 Noroeste 0 -- -- 90
2021-02-12 02:00:00 6 11 Norte 15 Noroeste 0 -- -- 89
2021-02-12 01:00:00 5.8 4 Norte 12 Noroeste 0 -- -- 89
2021-02-12 00:00:00 6.5 5 Norte 17 Noroeste 0 -- -- 87
2021-02-11 23:00:00 7.2 10 Norte 21 Noroeste 0 -- -- 84
2021-02-11 22:00:00 8 16 Norte 24 Norte 0 -- -- 83
2021-02-11 21:00:00 8.4 13 Norte 25 Norte 0 -- -- 79
2021-02-11 20:00:00 9.6 14 Norte 20 Norte 0 -- -- 75
2021-02-11 19:00:00 11.1 15 Noroeste 18 Norte 0 -- -- 74
2021-02-11 18:00:00 13.4 6 Oeste 13 Sudeste 0 -- -- 68
2021-02-11 17:00:00 14.7 11 Sudeste 14 Sudeste 0 -- -- 58
2021-02-11 16:00:00 15.4 7 Sudeste 13 Sudeste 0 -- -- 54
2021-02-11 15:00:00 14.7 8 Sudeste 12 Sudeste 0 -- -- 54
2021-02-11 14:00:00 13.2 8 Sudeste 14 Sudeste 0 -- -- 54
2021-02-11 13:00:00 11.3 5 Sudoeste 9 Sudoeste 0 -- -- 61
2021-02-11 12:00:00 8.2 3 Oeste 9 Este 0 -- -- 72
2021-02-11 11:00:00 5.2 4 Sudeste 9 Sur 0 -- -- 84
2021-02-11 10:00:00 2.3 2 Sur 8 Oeste 0 -- -- 93
2021-02-11 09:00:00 -0.3 6 Oeste 8 Oeste 0 -- -- 98
2021-02-11 08:00:00 -0.5 5 Noroeste 15 Norte 0 -- -- 99
2021-02-11 07:00:00 -0.1 10 Norte 15 Norte 0 -- -- 97
2021-02-11 06:00:00 0.6 6 Noroeste 14 Noroeste 0 -- -- 95
2021-02-11 05:00:00 0.6 10 Norte 14 Norte 0 -- -- 95
2021-02-11 04:00:00 0.8 11 Noroeste 18 Noroeste 0 -- -- 96
2021-02-11 03:00:00 1.2 8 Norte 18 Noroeste 0 -- -- 95
2021-02-11 02:00:00 1.5 11 Noroeste 19 Noroeste 0 -- -- 95
2021-02-11 01:00:00 1.9 7 Noroeste 16 Norte 0 -- -- 95
2021-02-11 00:00:00 2.7 8 Norte 13 Norte 0 -- -- 92
2021-02-10 23:00:00 3 10 Norte 21 Norte 0 -- -- 93
2021-02-10 22:00:00 3.6 14 Norte 17 Norte 0 -- -- 92
2021-02-10 21:00:00 4.9 14 Norte 20 Norte 0 -- -- 87
2021-02-10 20:00:00 6 8 Norte 19 Oeste 0 -- -- 81
2021-02-10 19:00:00 7.2 12 Sudoeste 34 Oeste 0 -- -- 74
2021-02-10 18:00:00 9.7 15 Oeste 35 Oeste 0 -- -- 65
2021-02-10 17:00:00 11 19 Oeste 31 Oeste 0 -- -- 62
2021-02-10 16:00:00 10.9 19 Oeste 40 Oeste 0 -- -- 64
2021-02-10 15:00:00 10.8 29 Oeste 48 Oeste 0 -- -- 61
2021-02-10 14:00:00 10.1 21 Oeste 31 Oeste 0 -- -- 70
2021-02-10 13:00:00 9.6 7 Sudoeste 14 Sudoeste 0 -- -- 80
2021-02-10 12:00:00 7.6 4 Sudeste 9 Sudeste 0 -- -- 90
2021-02-10 11:00:00 5 2 Oeste 8 Oeste 0 -- -- 100
2021-02-10 10:00:00 3.3 4 Oeste 9 Oeste 0.4 -- -- 100
2021-02-10 09:00:00 2.4 6 Noroeste 8 Oeste 0.4 -- -- 100
2021-02-10 08:00:00 2.4 6 Noroeste 10 Noroeste 0.2 -- -- 100
2021-02-10 07:00:00 2.2 6 Oeste 8 Oeste 0 -- -- 100
2021-02-10 06:00:00 2.3 5 Oeste 10 Norte 0.2 -- -- 100
2021-02-10 05:00:00 2.3 5 Sudeste 9 Oeste 0 -- -- 100
2021-02-10 04:00:00 2.3 5 Oeste 13 Norte 0 -- -- 100
2021-02-10 03:00:00 2.1 7 Oeste 13 Norte 0 -- -- 100
2021-02-10 02:00:00 2 4 Noroeste 9 Noroeste 0 -- -- 100
2021-02-10 01:00:00 1.9 6 Sudeste 12 Noroeste 0.8 -- -- 100
2021-02-10 00:00:00 1.6 9 Oeste 15 Oeste 0 -- -- 100
2021-02-09 23:00:00 1.4 0 Calma 15 Norte 0 -- -- 100
2021-02-09 22:00:00 1.4 8 Norte 14 Norte 0 -- -- 99
2021-02-09 21:00:00 1.8 12 Norte 21 Norte 0 -- -- 98
2021-02-09 20:00:00 1.9 15 Norte 21 Noroeste 0.2 -- -- 99
2021-02-09 19:00:00 2.2 9 Noroeste 19 Norte 0.6 -- -- 100
2021-02-09 18:00:00 2.2 14 Norte 22 Noroeste 1.8 -- -- 98
2021-02-09 17:00:00 2.7 17 Norte 23 Norte 1.6 -- -- 98
2021-02-09 16:00:00 4.1 13 Noroeste 19 Norte 2.2 -- -- 97
2021-02-09 15:00:00 4.8 2 Noroeste 6 Norte 2.8 -- -- 99
2021-02-09 14:00:00 4.9 3 Oeste 6 Sudoeste 1.2 -- -- 99
2021-02-09 13:00:00 4.7 3 Sur 6 Sur 0.2 -- -- 99
2021-02-09 12:00:00 4.1 4 Oeste 8 Oeste 0.4 -- -- 99
2021-02-09 11:00:00 3.4 3 Oeste 6 Oeste 0.6 -- -- 100
2021-02-09 10:00:00 2.4 6 Oeste 8 Oeste 0 -- -- 100
2021-02-09 09:00:00 1.8 0 Calma 14 Norte 0.2 -- -- 100
2021-02-09 08:00:00 1.4 7 Oeste 13 Oeste 0 -- -- 99
2021-02-09 07:00:00 0.9 2 Nordeste 9 Norte 0 -- -- 99
2021-02-09 06:00:00 0.9 4 Noroeste 15 Norte 0 -- -- 99
2021-02-09 05:00:00 0.9 4 Noroeste 10 Norte 0 -- -- 98
2021-02-09 04:00:00 1.2 8 Norte 14 Norte 0 -- -- 98
2021-02-09 03:00:00 1.5 10 Norte 14 Norte 0 -- -- 98
2021-02-09 02:00:00 1.7 9 Norte 14 Noroeste 0 -- -- 99
2021-02-09 01:00:00 1.4 11 Noroeste 15 Oeste 0 -- -- 98
2021-02-09 00:00:00 2.2 8 Noroeste 15 Norte 0 -- -- 98
2021-02-08 23:00:00 2.4 7 Oeste 15 Norte 0 -- -- 98
2021-02-08 22:00:00 3.3 4 Noroeste 12 Norte 0 -- -- 95
2021-02-08 21:00:00 4.2 9 Noroeste 15 Norte 0 -- -- 96
2021-02-08 20:00:00 5.2 9 Norte 13 Norte 0 -- -- 94
2021-02-08 19:00:00 6.7 10 Norte 14 Norte 0 -- -- 89
2021-02-08 18:00:00 8.7 10 Oeste 20 Oeste 0 -- -- 74
2021-02-08 17:00:00 9 3 Nordeste 13 Sudeste 0 -- -- 82
2021-02-08 16:00:00 7.3 8 Sudeste 15 Sudeste 0 -- -- 93
2021-02-08 15:00:00 6.8 4 Sur 9 Sur 0 -- -- 94
2021-02-08 14:00:00 5.4 6 Este 9 Este 1 -- -- 98
2021-02-08 13:00:00 5.1 4 Sudeste 5 Este 0.4 -- -- 95
2021-02-08 12:00:00 4.8 2 Este 5 Oeste 0 -- -- 95
2021-02-08 11:00:00 4.2 4 Noroeste 6 Oeste 0 -- -- 96
2021-02-08 10:00:00 3.6 5 Noroeste 12 Norte 0 -- -- 97
2021-02-08 09:00:00 3.1 8 Norte 12 Norte 0 -- -- 97
2021-02-08 08:00:00 3 6 Noroeste 12 Noroeste 0 -- -- 94
2021-02-08 07:00:00 2.8 7 Noroeste 14 Noroeste 0.2 -- -- 95
2021-02-08 06:00:00 2.7 8 Noroeste 15 Norte 0 -- -- 94
2021-02-08 05:00:00 2.5 5 Oeste 13 Norte 0 -- -- 93
2021-02-08 04:00:00 2.3 8 Norte 12 Norte 0 -- -- 91
2021-02-08 03:00:00 2.2 7 Sudoeste 14 Nordeste 0 -- -- 90
2021-02-08 02:00:00 2.6 5 Noroeste 15 Norte 0 -- -- 88
2021-02-08 01:00:00 2.9 13 Norte 18 Norte 0 -- -- 85
2021-02-08 00:00:00 4.2 4 Norte 10 Norte 0 -- -- 78
2021-02-07 23:00:00 5.9 8 Sudoeste 17 Sudoeste 0 -- -- 66
2021-02-07 22:00:00 6.2 10 Sudoeste 17 Sudoeste 0 -- -- 69
2021-02-07 21:00:00 6.9 5 Sudeste 17 Sudoeste 0 -- -- 68
2021-02-07 20:00:00 7.6 15 Oeste 27 Oeste 0 -- -- 64
2021-02-07 19:00:00 7.9 5 Sudoeste 17 Oeste 0 -- -- 66
2021-02-07 18:00:00 8.8 6 Oeste 28 Sudoeste 0 -- -- 62
2021-02-07 17:00:00 10 16 Sudoeste 29 Sudoeste 0 -- -- 57
2021-02-07 16:00:00 11.5 17 Sudoeste 24 Sudoeste 0 -- -- 51
2021-02-07 15:00:00 12.8 6 Sur 18 Sudoeste 0 -- -- 44
2021-02-07 14:00:00 12.2 6 Sur 16 Sur 0 -- -- 51
2021-02-07 13:00:00 11.2 8 Sudeste 16 Sudeste 0 -- -- 59
2021-02-07 12:00:00 9.5 6 Este 10 Este 0 -- -- 64
2021-02-07 11:00:00 7.2 3 Sudoeste 8 Este 0 -- -- 71
2021-02-07 10:00:00 5 4 Este 8 Este 0 -- -- 85
2021-02-07 09:00:00 2.9 4 Norte 8 Noroeste 0 -- -- 93
2021-02-07 08:00:00 2.7 4 Noroeste 7 Noroeste 0 -- -- 90
2021-02-07 07:00:00 3.7 4 Norte 7 Oeste 0 -- -- 93
2021-02-07 06:00:00 4.4 4 Sur 8 Sur 0 -- -- 91
2021-02-07 05:00:00 5 4 Sur 9 Este 0 -- -- 97
2021-02-07 04:00:00 5.3 6 Sudeste 12 Sudeste 0 -- -- 98
2021-02-07 03:00:00 5.7 5 Sudeste 9 Este 0 -- -- 95
2021-02-07 02:00:00 6 0 Calma 5 Nordeste 0 -- -- 99
2021-02-07 01:00:00 6.1 2 Nordeste 4 Este 0 -- -- 100
2021-02-07 00:00:00 6.2 0 Calma 8 Norte 0 -- -- 100
2021-02-06 23:00:00 6.3 5 Norte 7 Norte 0 -- -- 99
2021-02-06 22:00:00 6.6 4 Oeste 8 Oeste 0 -- -- 98
2021-02-06 21:00:00 6.8 7 Oeste 10 Oeste 0 -- -- 96
2021-02-06 20:00:00 7.3 2 Nordeste 9 Oeste 0.2 -- -- 95
2021-02-06 19:00:00 7.8 8 Oeste 22 Noroeste 0.4 -- -- 93
2021-02-06 18:00:00 7.9 13 Noroeste 22 Oeste 10 -- -- 92
2021-02-06 17:00:00 9.9 7 Norte 15 Norte 0.2 -- -- 89
2021-02-06 16:00:00 10.8 5 Noroeste 13 Norte 0.4 -- -- 83
2021-02-06 15:00:00 9.9 12 Noroeste 15 Noroeste 0.4 -- -- 94
2021-02-06 14:00:00 10.6 9 Noroeste 14 Oeste 0.2 -- -- 87
2021-02-06 13:00:00 11.1 3 Nordeste 7 Sur 0 -- -- 80
2021-02-06 12:00:00 9.6 0 Calma 9 Noroeste 0 -- -- 89
2021-02-06 11:00:00 8.6 9 Noroeste 19 Oeste 2.8 -- -- 96
2021-02-06 10:00:00 -- 16 Oeste 24 Oeste 0.2 -- -- --
2021-02-06 09:00:00 9.9 14 Oeste 24 Oeste 0 -- -- 72
2021-02-06 08:00:00 9.5 13 Sudeste 21 Este 0 -- -- 71
2021-02-06 07:00:00 9.8 8 Sudeste 16 Sur 0 -- -- 72
2021-02-06 06:00:00 11.6 6 Sudeste 25 Norte 0 -- -- 66
2021-02-06 05:00:00 11.4 10 Norte 25 Norte 0 -- -- 65
2021-02-06 04:00:00 10.5 4 Sudeste 23 Oeste 0 -- -- 67
2021-02-06 03:00:00 9.9 16 Norte 30 Oeste 0 -- -- 68
2021-02-06 02:00:00 8.9 9 Oeste 23 Oeste 0 -- -- 71
2021-02-06 01:00:00 8.1 11 Oeste 17 Oeste 0 -- -- 74
2021-02-06 00:00:00 8.6 10 Noroeste 18 Noroeste 0 -- -- 72
2021-02-05 23:00:00 9.4 9 Noroeste 15 Noroeste 0 -- -- 70
2021-02-05 22:00:00 10.3 9 Noroeste 20 Norte 0 -- -- 67
2021-02-05 21:00:00 11.5 10 Noroeste 17 Norte 0 -- -- 64
2021-02-05 20:00:00 13.1 12 Norte 15 Norte 0 -- -- 58
2021-02-05 19:00:00 15.1 6 Norte 19 Sur 0 -- -- 53
2021-02-05 18:00:00 16.5 10 Sur 19 Sur 0 -- -- 44
2021-02-05 17:00:00 18.1 10 Sur 31 Sudeste 0 -- -- 42
2021-02-05 16:00:00 18.1 21 Sudeste 32 Sudeste 0 -- -- 41
2021-02-05 15:00:00 18.8 19 Sudeste 30 Sudeste 0 -- -- 41
2021-02-05 14:00:00 19.3 12 Sudeste 18 Sudeste 0 -- -- 45
2021-02-05 13:00:00 17.7 5 Sudoeste 10 Oeste 0 -- -- 53
2021-02-05 12:00:00 15 3 Oeste 8 Sudoeste 0 -- -- 66
2021-02-05 11:00:00 11.3 3 Oeste 9 Oeste 0 -- -- 79
2021-02-05 10:00:00 8.1 4 Este 9 Oeste 0 -- -- 88
2021-02-05 09:00:00 8.3 8 Oeste 12 Noroeste 0 -- -- 85
2021-02-05 08:00:00 7.8 6 Norte 12 Oeste 0 -- -- 88
2021-02-05 07:00:00 8.2 8 Oeste 11 Oeste 0 -- -- 86
2021-02-05 06:00:00 8.3 5 Noroeste 9 Oeste 0 -- -- 87
2021-02-05 05:00:00 8.5 4 Sudoeste 11 Norte 0 -- -- 86
2021-02-05 04:00:00 8.6 6 Este 22 Sudeste 0 -- -- 87
2021-02-05 03:00:00 8.9 14 Oeste 26 Sudoeste 0 -- -- 88
2021-02-05 02:00:00 8.7 10 Oeste 14 Sudoeste 0 -- -- 88
2021-02-05 01:00:00 8.9 4 Sudeste 19 Norte 0 -- -- 85
2021-02-05 00:00:00 9 10 Noroeste 17 Noroeste 0 -- -- 86
2021-02-04 23:00:00 8.8 7 Noroeste 14 Oeste 0 -- -- 87
2021-02-04 22:00:00 9.2 8 Noroeste 15 Noroeste 0 -- -- 86
2021-02-04 21:00:00 9.7 6 Noroeste 14 Noroeste 0 -- -- 85
2021-02-04 20:00:00 10.6 9 Noroeste 12 Noroeste 0 -- -- 82
2021-02-04 19:00:00 12.1 7 Noroeste 12 Norte 0 -- -- 77
2021-02-04 18:00:00 14.2 5 Nordeste 7 Nordeste 0 -- -- 70
2021-02-04 17:00:00 15.5 2 Oeste 5 Oeste 0 -- -- 62
2021-02-04 16:00:00 15.6 2 Oeste 6 Oeste 0 -- -- 60
2021-02-04 15:00:00 15.5 2 Sudoeste 6 Este 0 -- -- 62
2021-02-04 14:00:00 15.4 3 Nordeste 6 Este 0 -- -- 62
2021-02-04 13:00:00 12.6 2 Nordeste 6 Sudeste 0 -- -- 76
2021-02-04 12:00:00 10.9 5 Sudeste 13 Sudeste 0 -- -- 81
2021-02-04 11:00:00 11.6 5 Sudeste 8 Este 0 -- -- 81
2021-02-04 10:00:00 8.6 4 Oeste 6 Sudoeste 0 -- -- 93
2021-02-04 09:00:00 7.2 0 Calma 5 Sudoeste 0 -- -- 95
2021-02-04 08:00:00 6.8 4 Este 11 Sudeste 0 -- -- 95
2021-02-04 07:00:00 7 4 Sudoeste 9 Noroeste 0 -- -- 93
2021-02-04 06:00:00 7 4 Norte 7 Nordeste 0 -- -- 94
2021-02-04 05:00:00 7.2 3 Oeste 14 Norte 0 -- -- 93
2021-02-04 04:00:00 7.2 5 Nordeste 11 Norte 0 -- -- 93
2021-02-04 03:00:00 7.4 8 Oeste 12 Oeste 0 -- -- 92
2021-02-04 02:00:00 7.3 9 Norte 12 Norte 0 -- -- 92
2021-02-04 01:00:00 8.2 7 Noroeste 12 Noroeste 0 -- -- 89
2021-02-04 00:00:00 8.2 8 Oeste 13 Noroeste 0 -- -- 88
2021-02-03 23:00:00 8.5 5 Noroeste 11 Oeste 0 -- -- 87
2021-02-03 22:00:00 8.6 8 Oeste 12 Norte 0 -- -- 87
2021-02-03 21:00:00 9.3 6 Oeste 9 Noroeste 0 -- -- 84
2021-02-03 20:00:00 9.9 6 Norte 14 Oeste 0 -- -- 86
2021-02-03 19:00:00 11.2 8 Noroeste 12 Noroeste 0 -- -- 79
2021-02-03 18:00:00 13.4 8 Oeste 12 Oeste 0 -- -- 74
2021-02-03 17:00:00 16.1 3 Sudoeste 10 Oeste 0 -- -- 63
2021-02-03 16:00:00 14.5 5 Oeste 6 Oeste 0 -- -- 71
2021-02-03 15:00:00 14.7 2 Sudoeste 8 Sudoeste 0 -- -- 67
2021-02-03 14:00:00 13.9 2 Este 8 Oeste 0 -- -- 68
2021-02-03 13:00:00 13 4 Sudeste 9 Sudeste 0 -- -- 68
2021-02-03 12:00:00 9.6 6 Sudeste 10 Sudeste 0 -- -- 83
2021-02-03 11:00:00 8 7 Sudeste 13 Sur 0 -- -- 86
2021-02-03 10:00:00 4.9 3 Nordeste 8 Este 0 -- -- 100
2021-02-03 09:00:00 2.1 4 Norte 7 Oeste 0 -- -- 100
2021-02-03 08:00:00 2.1 4 Este 8 Noroeste 0 -- -- 99
2021-02-03 07:00:00 3.1 5 Noroeste 8 Oeste 0 -- -- 98
2021-02-03 06:00:00 3.8 6 Noroeste 9 Norte 0 -- -- 98
2021-02-03 05:00:00 4.6 5 Noroeste 16 Noroeste 0 -- -- 98
2021-02-03 04:00:00 5 7 Noroeste 13 Norte 0 -- -- 98
2021-02-03 03:00:00 5.2 5 Oeste 8 Noroeste 0 -- -- 96
2021-02-03 02:00:00 6.3 3 Norte 6 Oeste 0 -- -- 95
2021-02-03 01:00:00 7.4 2 Oeste 11 Oeste 0 -- -- 90
2021-02-03 00:00:00 8.1 9 Oeste 17 Noroeste 0 -- -- 88
2021-02-02 23:00:00 8.6 4 Noroeste 11 Oeste 0 -- -- 88
2021-02-02 22:00:00 8.9 8 Noroeste 12 Noroeste 0 -- -- 88
2021-02-02 21:00:00 9.8 7 Noroeste 14 Noroeste 0 -- -- 84
2021-02-02 20:00:00 10.8 6 Noroeste 13 Norte 0 -- -- 81
2021-02-02 19:00:00 12.4 7 Norte 16 Norte 0 -- -- 75
2021-02-02 18:00:00 13.8 8 Sudeste 15 Sudeste 0 -- -- 69
2021-02-02 17:00:00 15.8 11 Sudeste 14 Sudeste 0 -- -- 60
2021-02-02 16:00:00 16.1 9 Sudeste 12 Sudeste 0 -- -- 58
2021-02-02 15:00:00 16.7 6 Sudeste 19 Sudeste 0 -- -- 57
2021-02-02 14:00:00 15.4 15 Sudeste 18 Sudeste 0 -- -- 61
2021-02-02 13:00:00 14.3 4 Sudeste 10 Este 0 -- -- 66
2021-02-02 12:00:00 11.6 4 Este 10 Este 0 -- -- 73
2021-02-02 11:00:00 8.1 3 Norte 8 Nordeste 0 -- -- 85
2021-02-02 10:00:00 5.6 2 Oeste 15 Noroeste 0 -- -- 93
2021-02-02 09:00:00 4.2 9 Noroeste 17 Noroeste 0 -- -- 96
2021-02-02 08:00:00 3.9 9 Noroeste 14 Norte 0 -- -- 97
2021-02-02 07:00:00 4.1 3 Este 18 Norte 0 -- -- 95
2021-02-02 06:00:00 4.2 13 Norte 18 Norte 0 -- -- 94
2021-02-02 05:00:00 4.6 12 Norte 17 Norte 0 -- -- 94
2021-02-02 04:00:00 5.2 8 Noroeste 18 Norte 0 -- -- 92
2021-02-02 03:00:00 5 8 Norte 14 Norte 0 -- -- 94
2021-02-02 02:00:00 5.4 11 Norte 16 Norte 0 -- -- 92
2021-02-02 01:00:00 5.8 13 Norte 21 Norte 0 -- -- 90
2021-02-02 00:00:00 6.9 14 Norte 18 Norte 0 -- -- 86
2021-02-01 23:00:00 8.3 12 Norte 17 Norte 0 -- -- 80
2021-02-01 22:00:00 8.8 4 Nordeste 15 Sudeste 0 -- -- 77
2021-02-01 21:00:00 10.5 8 Este 24 Oeste 0 -- -- 70
2021-02-01 20:00:00 12.3 15 Oeste 38 Oeste 0 -- -- 63
2021-02-01 19:00:00 12.7 13 Noroeste 43 Oeste 0 -- -- 60
2021-02-01 18:00:00 13.6 36 Oeste 58 Oeste 0 -- -- 58
2021-02-01 17:00:00 14.9 37 Oeste 51 Oeste 0 -- -- 54
2021-02-01 16:00:00 15.5 31 Oeste 53 Oeste 0 -- -- 53
2021-02-01 15:00:00 15.1 33 Oeste 56 Oeste 0 -- -- 52
2021-02-01 14:00:00 14.6 39 Oeste 58 Oeste 0 -- -- 55
2021-02-01 13:00:00 14.4 37 Oeste 49 Oeste 0 -- -- 51
2021-02-01 12:00:00 13.4 26 Noroeste 44 Oeste 0 -- -- 57
2021-02-01 11:00:00 11.8 20 Noroeste 37 Oeste 0 -- -- 66
2021-02-01 10:00:00 8.4 8 Norte 22 Noroeste 0 -- -- 83
2021-02-01 09:00:00 6.3 13 Norte 27 Noroeste 0 -- -- 89
2021-02-01 08:00:00 7.7 15 Noroeste 39 Noroeste 0 -- -- 80
2021-02-01 07:00:00 8.9 22 Oeste 35 Noroeste 0 -- -- 72
2021-02-01 06:00:00 8.9 18 Noroeste 39 Noroeste 0 -- -- 73
2021-02-01 05:00:00 9.4 22 Noroeste 42 Noroeste 0 -- -- 71
2021-02-01 04:00:00 9.6 21 Noroeste 42 Noroeste 0 -- -- 72
2021-02-01 03:00:00 9.1 21 Noroeste 42 Noroeste 0 -- -- 76
2021-02-01 02:00:00 9.9 22 Noroeste 40 Noroeste 0.2 -- -- 72
2021-02-01 01:00:00 8.4 11 Norte 48 Oeste 0.4 -- -- 91
2021-02-01 00:00:00 9.5 14 Norte 54 Oeste 0 -- -- 84
2021-01-31 23:00:00 8.7 8 Noroeste 24 Oeste 0 -- -- 82
2021-01-31 22:00:00 7.5 12 Este 18 Este 0 -- -- 86
2021-01-31 21:00:00 8.3 9 Nordeste 19 Norte 0 -- -- 83
2021-01-31 20:00:00 9.4 5 Sudeste 15 Norte 0 -- -- 77
2021-01-31 19:00:00 10.9 10 Sur 32 Oeste 0 -- -- 71
2021-01-31 18:00:00 12.6 12 Oeste 31 Oeste 0 -- -- 65
2021-01-31 17:00:00 14.6 20 Oeste 29 Oeste 0 -- -- 60
2021-01-31 16:00:00 15.5 20 Oeste 35 Oeste 0 -- -- 57
2021-01-31 15:00:00 15.3 16 Sudeste 25 Este 0 -- -- 52
2021-01-31 14:00:00 14.4 14 Sudeste 20 Sudeste 0 -- -- 52
2021-01-31 13:00:00 12.9 13 Sudeste 20 Sudeste 0 -- -- 59
2021-01-31 12:00:00 11 10 Sudeste 17 Este 0 -- -- 68
2021-01-31 11:00:00 7.3 4 Este 13 Este 0 -- -- 86
2021-01-31 10:00:00 4.1 4 Sudeste 13 Este 0 -- -- 94
2021-01-31 09:00:00 1.8 7 Este 13 Este 0 -- -- 100
2021-01-31 08:00:00 2 6 Nordeste 12 Norte 0 -- -- 98
2021-01-31 07:00:00 2 6 Norte 9 Norte 0 -- -- 98
2021-01-31 06:00:00 2.4 4 Oeste 8 Nordeste 0 -- -- 98
2021-01-31 05:00:00 2.8 5 Noroeste 9 Oeste 0 -- -- 98
2021-01-31 04:00:00 3.4 5 Nordeste 9 Norte 0 -- -- 95
2021-01-31 03:00:00 3.8 3 Oeste 9 Norte 0 -- -- 94
2021-01-31 02:00:00 3.8 7 Nordeste 15 Norte 0 -- -- 95
2021-01-31 01:00:00 3.9 8 Nordeste 17 Norte 0 -- -- 92
2021-01-31 00:00:00 4.4 8 Norte 14 Norte 0 -- -- 87
2021-01-30 23:00:00 4.9 4 Noroeste 15 Noroeste 0 -- -- 81
2021-01-30 22:00:00 5.2 7 Sudoeste 17 Noroeste 0 -- -- 77
2021-01-30 21:00:00 6.5 13 Noroeste 23 Oeste 0 -- -- 69
2021-01-30 20:00:00 6.9 17 Noroeste 42 Oeste 0 -- -- 69
2021-01-30 19:00:00 7.5 24 Noroeste 41 Oeste 0 -- -- 67
2021-01-30 18:00:00 8.5 30 Oeste 44 Oeste 0 -- -- 67
2021-01-30 17:00:00 10.5 22 Oeste 43 Oeste 0 -- -- 63
2021-01-30 16:00:00 9.6 30 Oeste 43 Oeste 0 -- -- 73
2021-01-30 15:00:00 10.4 24 Oeste 45 Oeste 0 -- -- 68
2021-01-30 14:00:00 9.9 26 Oeste 50 Oeste 0 -- -- 71
2021-01-30 13:00:00 11.6 25 Noroeste 41 Noroeste 0 -- -- 63
2021-01-30 12:00:00 11.6 9 Noroeste 24 Oeste 0 -- -- 74
2021-01-30 11:00:00 8.4 6 Sudeste 17 Nordeste 0 -- -- 97
2021-01-30 10:00:00 5.7 3 Sur 12 Norte 0.2 -- -- 98
2021-01-30 09:00:00 5.2 9 Este 14 Norte 1.8 -- -- 99
2021-01-30 08:00:00 4.9 10 Sudeste 16 Sudeste 0.4 -- -- 97
2021-01-30 07:00:00 5.2 5 Norte 16 Oeste 0 -- -- 93
2021-01-30 06:00:00 5.4 4 Norte 11 Sudeste 0 -- -- 92
2021-01-30 05:00:00 5.2 4 Nordeste 14 Oeste 0 -- -- 91
2021-01-30 04:00:00 5.8 7 Norte 14 Noroeste 0 -- -- 89
2021-01-30 03:00:00 5.7 8 Noroeste 13 Norte 0 -- -- 90
2021-01-30 02:00:00 6.2 10 Oeste 17 Norte 0 -- -- 90
2021-01-30 01:00:00 6.9 10 Norte 17 Oeste 0 -- -- 86
2021-01-30 00:00:00 7.3 9 Noroeste 18 Norte 0 -- -- 85